createdAt,value
2023-05-05T00:01:38.288Z,4.80
2023-05-05T00:04:06.818Z,4.88
2023-05-05T00:06:34.530Z,5.15
2023-05-05T00:09:02.196Z,5.10
2023-05-05T00:11:29.889Z,4.80
2023-05-05T00:13:58.943Z,5.13
2023-05-05T00:16:27.007Z,4.72
2023-05-05T00:18:54.712Z,5.10
2023-05-05T00:21:22.434Z,4.95
2023-05-05T00:23:50.188Z,4.80
2023-05-05T00:26:17.927Z,4.45
2023-05-05T00:28:45.672Z,4.82
2023-05-05T00:31:16.775Z,4.72
2023-05-05T00:33:44.475Z,4.40
2023-05-05T00:36:12.209Z,4.40
2023-05-05T00:38:39.914Z,4.72
2023-05-05T00:41:07.712Z,4.70
2023-05-05T00:43:35.942Z,4.70
2023-05-05T00:46:10.609Z,4.70
2023-05-05T00:48:39.850Z,4.90
2023-05-05T00:51:09.335Z,4.82
2023-05-05T00:53:39.718Z,5.03
2023-05-05T00:56:07.993Z,4.70
2023-05-05T00:58:37.547Z,5.25
2023-05-05T01:01:05.474Z,5.35
2023-05-05T01:03:33.328Z,5.25
2023-05-05T01:06:15.377Z,5.32
2023-05-05T01:08:52.577Z,5.17
2023-05-05T01:11:27.048Z,4.82
2023-05-05T01:14:07.096Z,5.03
2023-05-05T01:16:37.451Z,5.43
2023-05-05T01:19:22.343Z,5.38
2023-05-05T01:21:57.076Z,5.28
2023-05-05T01:24:45.097Z,5.15
2023-05-05T01:27:31.824Z,5.60
2023-05-05T01:30:11.654Z,4.82
2023-05-05T01:32:45.004Z,5.32
2023-05-05T01:35:19.399Z,5.47
2023-05-05T01:37:50.678Z,6.32
2023-05-05T01:40:23.994Z,5.53
2023-05-05T01:42:52.820Z,5.40
2023-05-05T01:45:23.354Z,5.50
2023-05-05T01:47:55.898Z,5.65
2023-05-05T01:52:53.685Z,5.65
2023-05-05T01:55:24.055Z,6.00
2023-05-05T01:57:53.019Z,5.72
2023-05-05T02:00:22.686Z,5.72
2023-05-05T02:02:53.206Z,5.30
2023-05-05T02:05:22.954Z,6.03
2023-05-05T02:07:52.012Z,5.53
2023-05-05T02:10:20.189Z,5.90
2023-05-05T02:12:49.580Z,6.10
2023-05-05T02:15:18.284Z,5.78
2023-05-05T02:17:48.212Z,5.40
2023-05-05T02:20:19.515Z,5.72
2023-05-05T02:22:47.848Z,5.63
2023-05-05T02:25:17.617Z,5.65
2023-05-05T02:27:47.402Z,5.35
2023-05-05T02:30:19.082Z,5.85
2023-05-05T02:32:51.881Z,6.00
2023-05-05T02:35:24.116Z,5.40
2023-05-05T02:37:59.597Z,6.18
2023-05-05T02:40:29.779Z,6.25
2023-05-05T02:42:59.930Z,5.80
2023-05-05T02:45:29.514Z,5.60
2023-05-05T02:47:57.340Z,6.35
2023-05-05T02:50:26.413Z,5.80
2023-05-05T02:52:54.174Z,6.53
2023-05-05T02:55:21.936Z,6.03
2023-05-05T02:57:54.803Z,6.13
2023-05-05T03:00:29.710Z,6.32
2023-05-05T03:03:13.961Z,6.30
2023-05-05T03:05:47.978Z,6.85
2023-05-05T03:08:19.401Z,6.13
2023-05-05T03:10:52.689Z,6.10
2023-05-05T03:13:25.228Z,6.18
2023-05-05T03:15:54.192Z,6.40
2023-05-05T03:18:25.280Z,6.43
2023-05-05T03:20:55.063Z,6.28
2023-05-05T03:23:23.061Z,6.60
2023-05-05T03:25:52.086Z,6.20
2023-05-05T03:28:19.778Z,6.95
2023-05-05T03:30:47.572Z,6.72
2023-05-05T03:33:16.781Z,7.18
2023-05-05T03:35:44.512Z,7.22
2023-05-05T03:38:13.543Z,6.50
2023-05-05T03:40:44.616Z,6.70
2023-05-05T03:43:12.933Z,6.63
2023-05-05T03:45:40.642Z,6.50
2023-05-05T03:48:09.607Z,6.70
2023-05-05T03:50:37.705Z,7.13
2023-05-05T03:53:05.538Z,6.82
2023-05-05T03:55:34.706Z,7.18
2023-05-05T03:58:02.482Z,7.00
2023-05-05T04:00:30.722Z,7.07
2023-05-05T04:02:58.495Z,6.75
2023-05-05T04:05:27.093Z,6.60
2023-05-05T04:07:54.826Z,7.22
2023-05-05T04:10:22.515Z,7.15
2023-05-05T04:12:51.664Z,6.95
2023-05-05T04:15:19.391Z,7.35
2023-05-05T04:17:47.201Z,7.13
2023-05-05T04:20:14.904Z,7.07
2023-05-05T04:22:42.632Z,6.57
2023-05-05T04:25:10.927Z,7.25
2023-05-05T04:27:38.686Z,7.00
2023-05-05T04:30:09.726Z,7.03
2023-05-05T04:32:37.579Z,7.22
2023-05-05T04:35:05.728Z,7.10
2023-05-05T04:37:33.545Z,6.65
2023-05-05T04:40:01.272Z,6.90
2023-05-05T04:42:29.055Z,7.07
2023-05-05T04:44:56.830Z,6.88
2023-05-05T04:47:25.897Z,6.93
2023-05-05T04:49:56.022Z,6.70
2023-05-05T04:52:23.858Z,6.72
2023-05-05T04:54:51.649Z,6.50
2023-05-05T04:57:19.377Z,7.00
2023-05-05T04:59:47.171Z,6.80
2023-05-05T05:02:15.053Z,6.75
2023-05-05T05:04:44.222Z,7.03
2023-05-05T05:07:12.152Z,6.72
2023-05-05T05:09:40.042Z,6.82
2023-05-05T05:12:09.652Z,6.68
2023-05-05T05:14:38.224Z,7.45
2023-05-05T05:17:06.124Z,7.55
2023-05-05T05:19:33.850Z,7.43
2023-05-05T05:22:03.006Z,6.97
2023-05-05T05:24:30.765Z,6.88
2023-05-05T05:26:58.711Z,6.82
2023-05-05T05:29:27.087Z,7.28
2023-05-05T05:31:55.251Z,6.75
2023-05-05T05:34:23.100Z,6.70
2023-05-05T05:36:50.819Z,7.18
2023-05-05T05:39:19.941Z,7.05
2023-05-05T05:41:47.759Z,6.68
2023-05-05T05:44:15.645Z,7.05
2023-05-05T05:46:43.788Z,6.72
2023-05-05T05:49:11.569Z,6.32
2023-05-05T05:51:39.388Z,6.75
2023-05-05T05:54:07.496Z,7.35
2023-05-05T05:56:36.594Z,7.10
2023-05-05T05:59:07.951Z,7.97
2023-05-05T06:01:36.726Z,6.75
2023-05-05T06:04:04.816Z,6.88
2023-05-05T06:06:32.674Z,6.93
2023-05-05T06:09:00.822Z,6.50
2023-05-05T06:11:28.653Z,7.28
2023-05-05T06:13:57.810Z,6.82
2023-05-05T06:16:25.595Z,6.93
2023-05-05T06:18:53.541Z,7.07
2023-05-05T06:21:21.344Z,7.35
2023-05-05T06:23:49.062Z,7.35
2023-05-05T06:26:16.899Z,7.07
2023-05-05T06:28:44.697Z,6.88
2023-05-05T06:31:14.426Z,7.18
2023-05-05T06:33:42.235Z,7.20
2023-05-05T06:36:10.279Z,7.05
2023-05-05T06:38:38.036Z,6.18
2023-05-05T06:41:06.683Z,5.47
2023-05-05T06:43:34.500Z,5.38
2023-05-05T06:46:02.271Z,5.03
2023-05-05T06:48:31.445Z,5.00
2023-05-05T06:50:59.259Z,5.30
2023-05-05T06:53:27.037Z,5.47
2023-05-05T06:55:54.807Z,5.40
2023-05-05T06:58:22.545Z,4.13
2023-05-05T07:00:50.439Z,4.15
2023-05-05T07:03:18.328Z,4.00
2023-05-05T07:05:47.565Z,6.20
2023-05-05T07:08:15.349Z,6.38
2023-05-05T07:10:43.216Z,5.80
2023-05-05T07:13:11.017Z,5.50
2023-05-05T07:15:38.830Z,5.07
2023-05-05T07:18:06.788Z,4.82
2023-05-05T07:20:34.715Z,5.90
2023-05-05T07:23:03.842Z,6.88
2023-05-05T07:25:31.560Z,6.80
2023-05-05T07:27:59.604Z,6.53
2023-05-05T07:30:27.352Z,6.63
2023-05-05T07:32:55.782Z,6.38
2023-05-05T07:35:23.776Z,6.63
2023-05-05T07:37:51.948Z,6.18
2023-05-05T07:40:21.274Z,5.90
2023-05-05T07:42:49.045Z,5.50
2023-05-05T07:45:16.872Z,5.20
2023-05-05T07:47:44.796Z,5.10
2023-05-05T07:50:12.655Z,4.55
2023-05-05T07:55:11.426Z,4.18
2023-05-05T07:57:40.695Z,3.67
2023-05-05T08:00:10.262Z,3.50
2023-05-05T08:02:38.467Z,3.67
2023-05-05T08:05:07.115Z,3.70
2023-05-05T08:07:36.466Z,3.67
2023-05-05T08:10:04.433Z,3.92
2023-05-05T08:12:32.187Z,3.80
2023-05-05T08:15:01.267Z,3.80
2023-05-05T08:17:29.065Z,3.97
2023-05-05T08:19:56.786Z,3.65
2023-05-05T08:22:24.449Z,4.20
2023-05-05T08:24:52.181Z,3.47
2023-05-05T08:27:20.301Z,3.30
2023-05-05T08:29:48.028Z,3.00
2023-05-05T08:32:17.976Z,3.45
2023-05-05T08:34:45.870Z,3.28
2023-05-05T08:37:13.717Z,3.00
2023-05-05T08:39:41.512Z,3.15
2023-05-05T08:42:09.207Z,3.05
2023-05-05T08:44:37.565Z,2.80
2023-05-05T08:47:07.188Z,3.35
2023-05-05T08:49:43.211Z,3.10
2023-05-05T08:52:14.788Z,2.70
2023-05-05T08:54:47.355Z,3.25
2023-05-05T08:57:21.169Z,2.70
2023-05-05T08:59:50.914Z,2.75
2023-05-05T09:02:23.821Z,2.80
2023-05-05T09:04:53.386Z,2.40
2023-05-05T09:07:21.607Z,2.53
2023-05-05T09:09:50.347Z,2.70
2023-05-05T09:12:18.634Z,2.80
2023-05-05T09:14:47.516Z,2.75
2023-05-05T09:17:24.676Z,3.00
2023-05-05T09:20:05.375Z,2.45
2023-05-05T09:22:37.801Z,2.55
2023-05-05T09:25:06.728Z,3.45
2023-05-05T09:27:37.503Z,2.20
2023-05-05T09:30:06.634Z,2.65
2023-05-05T09:32:45.458Z,2.60
2023-05-05T09:35:15.051Z,2.28
2023-05-05T09:37:42.995Z,2.30
2023-05-05T09:40:11.941Z,2.17
2023-05-05T09:42:40.789Z,2.20
2023-05-05T09:45:26.175Z,2.30
2023-05-05T09:47:59.215Z,2.28
2023-05-05T09:50:32.589Z,2.53
2023-05-05T09:53:02.426Z,2.78
2023-05-05T09:55:31.971Z,2.40
2023-05-05T09:58:18.251Z,2.50
2023-05-05T10:00:46.427Z,2.15
2023-05-05T10:03:14.474Z,2.30
2023-05-05T10:05:51.935Z,2.70
2023-05-05T10:08:21.390Z,2.15
2023-05-05T10:10:52.394Z,2.20
2023-05-05T10:13:21.628Z,2.20
2023-05-05T10:15:52.060Z,2.58
2023-05-05T10:18:24.359Z,2.30
2023-05-05T10:20:58.322Z,2.40
2023-05-05T10:23:32.029Z,2.45
2023-05-05T10:26:03.137Z,2.20
2023-05-05T10:28:33.996Z,2.20
2023-05-05T10:31:07.581Z,2.03
2023-05-05T10:33:46.402Z,2.17
2023-05-05T10:36:17.016Z,2.10
2023-05-05T10:38:46.379Z,2.10
2023-05-05T10:41:15.099Z,2.00
2023-05-05T10:43:43.609Z,2.25
2023-05-05T10:46:11.974Z,1.90
2023-05-05T10:48:47.972Z,2.05
2023-05-05T10:51:39.216Z,3.65
2023-05-05T10:54:14.936Z,1.90
2023-05-05T10:56:44.122Z,2.28
2023-05-05T10:59:45.261Z,2.15
2023-05-05T11:02:23.622Z,1.70
2023-05-05T11:05:22.596Z,1.70
2023-05-05T11:07:52.878Z,1.90
2023-05-05T11:10:23.033Z,2.33
2023-05-05T11:13:20.241Z,2.03
2023-05-05T11:15:48.879Z,1.92
2023-05-05T11:18:37.518Z,2.00
2023-05-05T11:21:23.041Z,1.83
2023-05-05T11:23:53.068Z,1.90
2023-05-05T11:26:50.445Z,1.50
2023-05-05T11:29:18.297Z,2.15
2023-05-05T11:31:47.804Z,2.03
2023-05-05T11:34:29.034Z,2.00
2023-05-05T11:36:59.955Z,1.80
2023-05-05T11:39:40.180Z,1.77
2023-05-05T11:42:26.084Z,1.90
2023-05-05T11:44:54.798Z,1.90
2023-05-05T11:47:28.237Z,2.00
2023-05-05T11:49:56.786Z,1.45
2023-05-05T11:52:30.930Z,1.38
2023-05-05T11:55:03.856Z,1.25
2023-05-05T11:57:32.143Z,1.10
2023-05-05T12:00:02.140Z,1.15
2023-05-05T12:02:31.531Z,1.27
2023-05-05T12:05:00.477Z,1.33
2023-05-05T12:07:29.875Z,1.92
2023-05-05T12:09:57.815Z,2.25
2023-05-05T12:12:37.232Z,2.00
2023-05-05T12:15:06.418Z,1.90
2023-05-05T12:17:39.994Z,1.80
2023-05-05T12:20:09.061Z,1.90
2023-05-05T12:22:37.108Z,1.65
2023-05-05T12:25:07.010Z,3.30
2023-05-05T12:27:37.051Z,1.80
2023-05-05T12:30:16.553Z,1.75
2023-05-05T12:32:45.060Z,1.65
2023-05-05T12:35:14.724Z,1.95
2023-05-05T12:37:43.540Z,1.73
2023-05-05T12:40:45.213Z,1.70
2023-05-05T12:43:26.616Z,1.90
2023-05-05T12:46:02.412Z,1.85
2023-05-05T12:48:30.759Z,2.05
2023-05-05T12:51:14.717Z,1.80
2023-05-05T12:53:42.786Z,1.70
2023-05-05T12:56:36.085Z,1.88
2023-05-05T12:59:07.752Z,1.90
2023-05-05T13:01:36.220Z,1.80
2023-05-05T13:04:12.771Z,2.20
2023-05-05T13:06:42.937Z,1.63
2023-05-05T13:09:23.101Z,1.90
2023-05-05T13:11:51.077Z,1.73
2023-05-05T13:14:20.267Z,1.63
2023-05-05T13:16:48.173Z,1.83
2023-05-05T13:19:16.129Z,1.90
2023-05-05T13:21:44.373Z,1.80
2023-05-05T13:24:21.473Z,1.70
2023-05-05T13:26:54.089Z,1.50
2023-05-05T13:29:26.152Z,1.58
2023-05-05T13:31:56.412Z,1.85
2023-05-05T13:34:24.085Z,1.60
2023-05-05T13:36:51.908Z,1.45
2023-05-05T13:39:20.002Z,1.70
2023-05-05T13:41:48.126Z,1.50
2023-05-05T13:44:15.998Z,1.80
2023-05-05T13:46:45.254Z,1.48
2023-05-05T13:49:13.184Z,1.85
2023-05-05T13:51:41.112Z,1.77
2023-05-05T13:54:09.756Z,1.75
2023-05-05T13:56:37.823Z,1.67
2023-05-05T13:59:05.732Z,1.40
2023-05-05T14:01:33.814Z,1.70
2023-05-05T14:04:05.435Z,1.70
2023-05-05T14:06:33.847Z,2.08
2023-05-05T14:09:01.860Z,1.80
2023-05-05T14:11:31.597Z,1.52
2023-05-05T14:13:59.532Z,1.77
2023-05-05T14:16:27.584Z,1.50
2023-05-05T14:18:55.535Z,1.55
2023-05-05T14:21:24.796Z,1.90
2023-05-05T14:23:52.663Z,1.73
2023-05-05T14:26:20.480Z,2.03
2023-05-05T14:28:49.886Z,1.65
2023-05-05T14:31:18.535Z,1.80
2023-05-05T14:33:46.446Z,1.33
2023-05-05T14:36:14.378Z,1.40
2023-05-05T14:38:43.893Z,1.92
2023-05-05T14:41:12.046Z,1.73
2023-05-05T14:43:39.900Z,1.58
2023-05-05T14:46:07.897Z,1.58
2023-05-05T14:48:35.973Z,1.48
2023-05-05T14:51:04.264Z,2.05
2023-05-05T14:53:32.083Z,1.77
2023-05-05T14:56:02.235Z,1.70
2023-05-05T14:58:31.168Z,2.00
2023-05-05T15:00:59.066Z,2.10
2023-05-05T15:03:27.108Z,2.60
2023-05-05T15:05:55.043Z,2.70
2023-05-05T15:08:23.163Z,2.10
2023-05-05T15:10:51.013Z,2.10
2023-05-05T15:13:20.266Z,2.47
2023-05-05T15:15:48.984Z,2.55
2023-05-05T15:18:16.961Z,2.00
2023-05-05T15:20:44.880Z,2.10
2023-05-05T15:23:13.865Z,2.20
2023-05-05T15:25:41.732Z,2.38
2023-05-05T15:28:09.586Z,2.13
2023-05-05T15:30:38.842Z,1.73
2023-05-05T15:33:06.815Z,1.77
2023-05-05T15:35:34.805Z,1.50
2023-05-05T15:38:02.755Z,1.50
2023-05-05T15:40:30.686Z,1.45
2023-05-05T15:42:59.452Z,1.60
2023-05-05T15:45:27.435Z,1.52
2023-05-05T15:47:56.893Z,1.60
2023-05-05T15:50:24.717Z,1.52
2023-05-05T15:52:52.583Z,1.60
2023-05-05T15:55:20.465Z,1.50
2023-05-05T15:57:48.284Z,1.60
2023-05-05T16:00:16.631Z,1.75
2023-05-05T16:02:45.466Z,1.60
2023-05-05T16:05:15.366Z,1.70
2023-05-05T16:07:43.572Z,1.52
2023-05-05T16:10:12.035Z,1.58
2023-05-05T16:12:40.087Z,1.80
2023-05-05T16:15:08.927Z,1.50
2023-05-05T16:17:36.932Z,1.65
2023-05-05T16:20:05.395Z,1.73
2023-05-05T16:22:34.588Z,1.58
2023-05-05T16:25:02.381Z,2.15
2023-05-05T16:27:30.187Z,1.42
2023-05-05T16:29:59.715Z,1.60
2023-05-05T16:32:27.760Z,1.80
2023-05-05T16:34:55.623Z,1.80
2023-05-05T16:37:23.534Z,1.75
2023-05-05T16:39:52.717Z,1.70
2023-05-05T16:42:20.777Z,2.13
2023-05-05T16:44:48.579Z,1.65
2023-05-05T16:47:16.396Z,2.00
2023-05-05T16:49:44.264Z,1.90
2023-05-05T16:52:12.098Z,1.85
2023-05-05T16:54:39.842Z,1.77
2023-05-05T16:57:09.063Z,1.70
2023-05-05T16:59:37.052Z,1.92
2023-05-05T17:02:04.930Z,1.50
2023-05-05T17:04:32.795Z,2.00
2023-05-05T17:07:00.599Z,1.83
2023-05-05T17:09:28.377Z,1.95
2023-05-05T17:11:56.239Z,1.88
2023-05-05T17:14:26.570Z,2.10
2023-05-05T17:16:54.546Z,2.10
2023-05-05T17:19:22.304Z,2.10
2023-05-05T17:21:50.253Z,2.20
2023-05-05T17:24:18.015Z,2.00
2023-05-05T17:26:45.836Z,2.22
2023-05-05T17:29:14.330Z,2.50
2023-05-05T17:31:43.467Z,2.15
2023-05-05T17:34:11.424Z,1.85
2023-05-05T17:36:39.284Z,2.15
2023-05-05T17:39:07.436Z,1.90
2023-05-05T17:41:35.280Z,2.00
2023-05-05T17:44:03.224Z,2.30
2023-05-05T17:46:31.084Z,2.05
2023-05-05T17:49:00.462Z,2.20
2023-05-05T17:51:28.577Z,2.33
2023-05-05T17:53:56.451Z,2.40
2023-05-05T17:56:24.250Z,2.40
2023-05-05T17:58:52.547Z,2.40
2023-05-05T18:01:23.791Z,2.40
2023-05-05T18:03:51.883Z,2.70
2023-05-05T18:06:21.140Z,2.40
2023-05-05T18:08:49.392Z,2.55
2023-05-05T18:11:17.251Z,2.35
2023-05-05T18:13:45.087Z,2.30
2023-05-05T18:16:12.938Z,2.40
2023-05-05T18:18:41.367Z,2.05
2023-05-05T18:21:12.173Z,2.40
2023-05-05T18:23:41.650Z,2.40
2023-05-05T18:26:09.863Z,2.40
2023-05-05T18:28:38.470Z,2.53
2023-05-05T18:31:06.586Z,3.13
2023-05-05T18:33:34.476Z,2.47
2023-05-05T18:36:03.360Z,3.38
2023-05-05T18:38:32.707Z,7.47
2023-05-05T18:41:02.000Z,4.07
2023-05-05T18:43:29.809Z,2.70
2023-05-05T18:45:57.621Z,2.65
2023-05-05T18:48:26.214Z,2.00
2023-05-05T18:50:53.928Z,2.10
2023-05-05T18:53:21.752Z,2.33
2023-05-05T18:55:49.599Z,2.20
2023-05-05T18:58:19.648Z,2.30
2023-05-05T19:00:47.580Z,2.33
2023-05-05T19:03:15.518Z,2.08
2023-05-05T19:05:43.326Z,2.50
2023-05-05T19:08:11.355Z,2.80
2023-05-05T19:10:39.302Z,2.70
2023-05-05T19:13:07.851Z,2.90
2023-05-05T19:15:37.152Z,2.90
2023-05-05T19:18:06.466Z,2.65
2023-05-05T19:20:34.447Z,2.95
2023-05-05T19:23:04.465Z,3.08
2023-05-05T19:25:32.703Z,2.92
2023-05-05T19:28:00.583Z,2.90
2023-05-05T19:30:28.618Z,2.85
2023-05-05T19:32:57.966Z,2.60
2023-05-05T19:35:26.151Z,3.08
2023-05-05T19:37:54.869Z,2.80
2023-05-05T19:40:22.886Z,2.45
2023-05-05T19:42:50.650Z,2.38
2023-05-05T19:45:19.071Z,2.78
2023-05-05T19:47:47.131Z,2.72
2023-05-05T19:50:16.554Z,2.50
2023-05-05T19:52:44.396Z,2.40
2023-05-05T19:55:13.177Z,2.40
2023-05-05T19:57:41.731Z,2.53
2023-05-05T20:00:11.019Z,2.20
2023-05-05T20:02:39.234Z,2.13
2023-05-05T20:05:07.971Z,2.30
2023-05-05T20:07:37.248Z,2.70
2023-05-05T20:10:05.711Z,2.97
2023-05-05T20:12:33.516Z,3.00
2023-05-05T20:15:01.322Z,2.70
2023-05-05T20:17:29.235Z,2.60
2023-05-05T20:19:57.689Z,2.38
2023-05-05T20:22:26.454Z,2.00
2023-05-05T20:24:55.775Z,2.08
2023-05-05T20:27:24.172Z,2.08
2023-05-05T20:29:53.120Z,2.50
2023-05-05T20:32:20.871Z,2.20
2023-05-05T20:34:48.751Z,2.30
2023-05-05T20:37:16.739Z,2.30
2023-05-05T20:39:44.565Z,2.95
2023-05-05T20:42:13.708Z,2.60
2023-05-05T20:44:42.151Z,2.90
2023-05-05T20:47:10.013Z,2.72
2023-05-05T20:49:37.888Z,2.92
2023-05-05T20:52:06.008Z,2.88
2023-05-05T20:54:34.646Z,3.08
2023-05-05T20:57:03.139Z,3.00
2023-05-05T20:59:32.438Z,2.60
2023-05-05T21:02:00.331Z,2.75
2023-05-05T21:04:28.224Z,2.60
2023-05-05T21:06:57.447Z,3.10
2023-05-05T21:09:26.059Z,2.90
2023-05-05T21:11:53.907Z,3.10
2023-05-05T21:14:21.969Z,2.65
2023-05-05T21:16:51.124Z,2.95
2023-05-05T21:19:18.954Z,2.63
2023-05-05T21:21:46.735Z,2.90
2023-05-05T21:24:15.113Z,2.72
2023-05-05T21:26:44.112Z,2.67
2023-05-05T21:29:12.165Z,2.60
2023-05-05T21:31:40.158Z,2.70
2023-05-05T21:34:09.368Z,2.40
2023-05-05T21:36:38.676Z,2.63
2023-05-05T21:39:06.758Z,2.60
2023-05-05T21:41:34.672Z,2.30
2023-05-05T21:44:02.681Z,2.70
2023-05-05T21:46:30.594Z,2.10
2023-05-05T21:48:58.601Z,2.28
2023-05-05T21:51:27.899Z,2.05
2023-05-05T21:53:56.042Z,2.35
2023-05-05T21:56:23.934Z,2.20
2023-05-05T21:58:51.759Z,2.08
2023-05-05T22:01:19.662Z,1.98
2023-05-05T22:03:48.003Z,2.30
2023-05-05T22:06:17.439Z,2.30
2023-05-05T22:08:47.286Z,1.90
2023-05-05T22:11:15.560Z,2.08
2023-05-05T22:13:43.479Z,2.00
2023-05-05T22:16:12.594Z,2.10
2023-05-05T22:18:40.575Z,2.20
2023-05-05T22:21:08.369Z,2.53
2023-05-05T22:23:37.110Z,2.88
2023-05-05T22:26:06.721Z,2.40
2023-05-05T22:28:34.569Z,2.30
2023-05-05T22:31:02.813Z,2.40
2023-05-05T22:33:31.603Z,2.22
2023-05-05T22:35:59.476Z,2.10
2023-05-05T22:38:27.391Z,2.47
2023-05-05T22:40:55.284Z,2.40
2023-05-05T22:43:24.463Z,2.50
2023-05-05T22:45:52.388Z,2.50
2023-05-05T22:48:20.213Z,2.53
2023-05-05T22:50:48.114Z,2.40
2023-05-05T22:53:15.965Z,2.20
2023-05-05T22:55:44.004Z,2.25
2023-05-05T22:58:11.924Z,2.45
2023-05-05T23:00:41.164Z,2.60
2023-05-05T23:03:09.578Z,2.40
2023-05-05T23:05:38.422Z,2.45
2023-05-05T23:08:06.683Z,2.50
2023-05-05T23:10:34.472Z,2.60
2023-05-05T23:13:02.390Z,3.03
2023-05-05T23:15:30.946Z,2.55
2023-05-05T23:18:00.300Z,2.78
2023-05-05T23:20:28.472Z,2.50
2023-05-05T23:22:56.893Z,2.53
2023-05-05T23:25:24.718Z,2.67
2023-05-05T23:27:52.914Z,3.60
2023-05-05T23:30:20.867Z,3.35
2023-05-05T23:32:48.717Z,2.90
2023-05-05T23:35:18.122Z,3.03
2023-05-05T23:37:45.874Z,2.53
2023-05-05T23:40:13.779Z,2.67
2023-05-05T23:42:41.613Z,3.03
2023-05-05T23:45:11.310Z,3.15
2023-05-05T23:47:39.378Z,2.95
2023-05-05T23:50:08.527Z,3.25
2023-05-05T23:52:37.742Z,3.00
2023-05-05T23:55:06.731Z,3.20
2023-05-05T23:57:35.919Z,2.20
